createdAt,value
2023-02-27T00:03:18.029Z,-0.18
2023-02-27T00:08:40.193Z,-0.19
2023-02-27T00:14:02.093Z,-0.25
2023-02-27T00:19:24.019Z,-0.23
2023-02-27T00:24:45.846Z,-0.16
2023-02-27T00:30:10.084Z,-0.10
2023-02-27T00:35:31.914Z,-0.02
2023-02-27T00:40:55.423Z,0.05
2023-02-27T00:46:17.535Z,0.22
2023-02-27T00:51:40.122Z,0.32
2023-02-27T00:57:01.936Z,0.38
2023-02-27T01:02:23.784Z,0.46
2023-02-27T01:07:45.799Z,0.54
2023-02-27T01:13:11.159Z,0.61
2023-02-27T01:18:33.191Z,0.71
2023-02-27T01:23:55.179Z,0.86
2023-02-27T01:29:17.030Z,0.91
2023-02-27T01:34:38.866Z,0.94
2023-02-27T01:40:00.862Z,1.02
2023-02-27T01:45:41.651Z,1.08
2023-02-27T01:51:14.221Z,1.11
2023-02-27T01:56:37.178Z,1.08
2023-02-27T02:01:59.360Z,1.12
2023-02-27T02:07:22.253Z,1.15
2023-02-27T02:12:45.256Z,1.13
2023-02-27T02:18:26.370Z,1.08
2023-02-27T02:23:54.621Z,1.06
2023-02-27T02:29:39.732Z,0.99
2023-02-27T02:35:26.871Z,0.97
2023-02-27T02:41:10.356Z,0.86
2023-02-27T02:46:57.180Z,0.78
2023-02-27T02:52:19.105Z,0.75
2023-02-27T02:57:46.328Z,0.69
2023-02-27T03:03:17.513Z,0.66
2023-02-27T03:08:48.801Z,0.60
2023-02-27T03:14:19.250Z,0.62
2023-02-27T03:19:55.187Z,0.58
2023-02-27T03:25:17.441Z,0.63
2023-02-27T03:31:10.009Z,0.60
2023-02-27T03:36:37.823Z,0.57
2023-02-27T03:42:12.581Z,0.53
2023-02-27T03:47:49.176Z,0.50
2023-02-27T03:53:26.159Z,0.46
2023-02-27T03:58:48.088Z,0.43
2023-02-27T04:04:14.036Z,0.41
2023-02-27T04:10:08.774Z,0.45
2023-02-27T04:16:02.181Z,0.49
2023-02-27T04:21:50.436Z,0.48
2023-02-27T04:27:50.401Z,0.62
2023-02-27T04:33:37.220Z,0.63
2023-02-27T04:39:05.200Z,0.55
2023-02-27T04:44:29.309Z,0.53
2023-02-27T04:50:02.214Z,0.56
2023-02-27T04:55:28.531Z,0.53
2023-02-27T05:00:57.377Z,0.55
2023-02-27T05:06:19.614Z,0.58
2023-02-27T05:11:49.662Z,0.58
2023-02-27T05:17:11.598Z,0.50
2023-02-27T05:22:46.977Z,0.50
2023-02-27T05:28:35.201Z,0.50
2023-02-27T05:34:08.510Z,0.56
2023-02-27T05:39:32.606Z,0.72
2023-02-27T05:44:59.251Z,0.72
2023-02-27T05:50:25.472Z,0.77
2023-02-27T05:55:50.477Z,0.82
2023-02-27T06:01:12.936Z,0.72
2023-02-27T06:06:35.587Z,0.69
2023-02-27T06:11:58.128Z,0.60
2023-02-27T06:17:19.972Z,0.53
2023-02-27T06:22:42.182Z,0.49
2023-02-27T06:28:04.614Z,0.48
2023-02-27T06:33:26.739Z,0.57
2023-02-27T06:38:49.171Z,0.73
2023-02-27T06:44:10.995Z,0.84
2023-02-27T06:49:33.241Z,0.86
2023-02-27T06:54:54.982Z,0.96
2023-02-27T07:00:17.948Z,1.07
2023-02-27T07:05:42.027Z,1.21
2023-02-27T07:11:04.456Z,1.44
2023-02-27T07:16:26.683Z,1.59
2023-02-27T07:21:51.368Z,1.73
2023-02-27T07:27:13.464Z,1.73
2023-02-27T07:32:35.407Z,1.61
2023-02-27T07:37:57.450Z,1.55
2023-02-27T07:43:19.648Z,1.62
2023-02-27T07:48:41.506Z,1.65
2023-02-27T07:54:03.508Z,1.60
2023-02-27T07:59:25.240Z,1.68
2023-02-27T08:04:47.159Z,1.74
2023-02-27T08:10:09.706Z,1.89
2023-02-27T08:15:38.745Z,1.79
2023-02-27T08:21:00.677Z,1.84
2023-02-27T08:26:23.317Z,2.00
2023-02-27T08:31:47.041Z,1.99
2023-02-27T08:37:09.582Z,2.09
2023-02-27T08:42:34.618Z,2.14
2023-02-27T08:47:56.349Z,2.20
2023-02-27T08:53:18.532Z,2.22
2023-02-27T08:58:40.402Z,2.18
2023-02-27T09:04:08.685Z,2.14
2023-02-27T09:09:30.384Z,2.17
2023-02-27T09:14:52.213Z,2.19
2023-02-27T09:20:15.864Z,2.41
2023-02-27T09:25:37.781Z,2.66
2023-02-27T09:31:03.630Z,2.89
2023-02-27T09:36:26.117Z,2.94
2023-02-27T09:41:48.395Z,2.96
2023-02-27T09:47:28.681Z,3.01
2023-02-27T09:52:51.564Z,3.04
2023-02-27T09:58:41.035Z,3.07
2023-02-27T10:04:31.870Z,3.18
2023-02-27T10:10:05.438Z,3.18
2023-02-27T10:15:31.776Z,3.05
2023-02-27T10:21:00.590Z,2.97
2023-02-27T10:26:28.329Z,2.78
2023-02-27T10:31:55.601Z,2.69
2023-02-27T10:37:19.075Z,2.68
2023-02-27T10:42:41.790Z,2.64
2023-02-27T10:48:05.035Z,2.63
2023-02-27T10:53:28.180Z,2.52
2023-02-27T10:59:03.355Z,2.47
2023-02-27T11:04:40.517Z,2.38
2023-02-27T11:10:18.615Z,2.32
2023-02-27T11:15:40.655Z,2.35
2023-02-27T11:21:20.503Z,2.30
2023-02-27T11:26:59.322Z,2.15
2023-02-27T11:32:21.989Z,2.03
2023-02-27T11:37:50.012Z,1.95
2023-02-27T11:43:24.988Z,1.88
2023-02-27T11:48:49.124Z,1.81
2023-02-27T11:54:32.500Z,2.04
2023-02-27T12:00:06.745Z,2.65
2023-02-27T12:05:48.268Z,2.92
2023-02-27T12:11:28.543Z,2.48
2023-02-27T12:16:55.379Z,2.28
2023-02-27T12:22:25.394Z,2.22
2023-02-27T12:27:54.175Z,2.09
2023-02-27T12:33:26.713Z,2.05
2023-02-27T12:38:48.638Z,2.18
2023-02-27T12:44:49.601Z,2.27
2023-02-27T12:50:19.850Z,2.39
2023-02-27T12:55:47.524Z,2.45
2023-02-27T13:01:29.785Z,2.52
2023-02-27T13:06:53.552Z,2.93
2023-02-27T13:12:43.989Z,3.05
2023-02-27T13:18:32.814Z,2.82
2023-02-27T13:24:06.533Z,2.65
2023-02-27T13:29:40.957Z,2.48
2023-02-27T13:35:17.442Z,2.43
2023-02-27T13:40:41.151Z,2.62
2023-02-27T13:46:13.449Z,2.79
2023-02-27T13:51:35.390Z,3.04
2023-02-27T13:56:57.789Z,3.09
2023-02-27T14:02:57.794Z,3.20
2023-02-27T14:08:28.715Z,3.02
2023-02-27T14:13:50.672Z,2.83
2023-02-27T14:19:15.300Z,2.46
2023-02-27T14:25:00.968Z,2.18
2023-02-27T14:30:29.550Z,2.00
2023-02-27T14:36:06.228Z,1.96
2023-02-27T14:42:10.239Z,1.96
2023-02-27T14:47:34.659Z,2.11
2023-02-27T14:52:56.709Z,2.21
2023-02-27T14:58:21.955Z,2.28
2023-02-27T15:03:50.458Z,2.25
2023-02-27T15:09:43.280Z,2.22
2023-02-27T15:15:10.098Z,2.06
2023-02-27T15:20:35.111Z,1.98
2023-02-27T15:25:58.941Z,2.02
2023-02-27T15:31:23.578Z,1.96
2023-02-27T15:36:54.810Z,1.86
2023-02-27T15:42:17.474Z,1.73
2023-02-27T15:47:40.957Z,1.66
2023-02-27T15:53:10.156Z,1.75
2023-02-27T15:58:39.616Z,1.78
2023-02-27T16:04:06.384Z,1.79
2023-02-27T16:09:36.102Z,1.73
2023-02-27T16:15:21.113Z,1.79
2023-02-27T16:20:45.189Z,1.85
2023-02-27T16:26:49.230Z,1.79
2023-02-27T16:32:27.017Z,1.67
2023-02-27T16:37:53.898Z,1.51
2023-02-27T16:43:16.317Z,1.45
2023-02-27T16:48:41.243Z,1.43
2023-02-27T16:54:04.079Z,1.39
2023-02-27T16:59:27.311Z,1.32
2023-02-27T17:04:50.226Z,1.32
2023-02-27T17:10:18.619Z,1.25
2023-02-27T17:15:41.820Z,1.28
2023-02-27T17:21:05.268Z,1.25
2023-02-27T17:26:29.420Z,1.09
2023-02-27T17:31:53.375Z,0.96
2023-02-27T17:37:15.963Z,0.85
2023-02-27T17:42:39.506Z,0.71
2023-02-27T17:48:01.528Z,0.58
2023-02-27T17:53:23.271Z,0.47
2023-02-27T17:58:45.711Z,0.42
2023-02-27T18:04:13.507Z,0.38
2023-02-27T18:09:38.280Z,0.33
2023-02-27T18:15:00.804Z,0.29
2023-02-27T18:20:22.731Z,0.31
2023-02-27T18:25:54.298Z,0.33
2023-02-27T18:31:24.570Z,0.40
2023-02-27T18:36:46.686Z,0.46
2023-02-27T18:42:08.321Z,0.49
2023-02-27T18:47:30.481Z,0.51
2023-02-27T18:52:54.376Z,0.53
2023-02-27T18:58:16.493Z,0.60
2023-02-27T19:03:38.748Z,0.59
2023-02-27T19:09:01.576Z,0.64
2023-02-27T19:14:23.743Z,0.68
2023-02-27T19:19:48.547Z,0.72
2023-02-27T19:25:15.998Z,0.73
2023-02-27T19:30:40.189Z,0.71
2023-02-27T19:36:07.898Z,0.62
2023-02-27T19:41:31.334Z,0.60
2023-02-27T19:46:58.093Z,0.56
2023-02-27T19:52:22.696Z,0.49
2023-02-27T19:57:48.298Z,0.40
2023-02-27T20:03:13.868Z,0.41
2023-02-27T20:08:36.261Z,0.59
2023-02-27T20:13:58.457Z,0.73
2023-02-27T20:19:21.963Z,0.72
2023-02-27T20:24:45.005Z,0.82
2023-02-27T20:30:09.083Z,0.85
2023-02-27T20:35:30.926Z,0.89
2023-02-27T20:40:57.929Z,0.97
2023-02-27T20:46:22.531Z,0.98
2023-02-27T20:51:44.906Z,1.03
2023-02-27T20:57:06.854Z,1.13
2023-02-27T21:02:29.375Z,1.22
2023-02-27T21:07:51.886Z,1.17
2023-02-27T21:13:13.715Z,1.11
2023-02-27T21:18:36.780Z,1.18
2023-02-27T21:23:59.195Z,1.27
2023-02-27T21:29:21.611Z,1.27
2023-02-27T21:34:43.336Z,1.33
2023-02-27T21:40:08.789Z,1.34
2023-02-27T21:45:30.806Z,1.36
2023-02-27T21:51:00.370Z,1.42
2023-02-27T21:56:22.294Z,1.41
2023-02-27T22:01:47.591Z,1.40
2023-02-27T22:07:11.449Z,1.40
2023-02-27T22:12:34.499Z,1.29
2023-02-27T22:17:56.337Z,1.39
2023-02-27T22:23:18.362Z,1.52
2023-02-27T22:28:43.510Z,1.45
2023-02-27T22:34:12.397Z,1.42
2023-02-27T22:39:34.489Z,1.62
2023-02-27T22:44:58.126Z,1.70
2023-02-27T22:50:21.727Z,1.51
2023-02-27T22:55:52.920Z,1.40
2023-02-27T23:01:16.525Z,1.35
2023-02-27T23:06:40.083Z,1.32
2023-02-27T23:12:03.931Z,1.44
2023-02-27T23:17:25.423Z,1.50
2023-02-27T23:22:47.379Z,1.40
2023-02-27T23:28:09.207Z,1.40
2023-02-27T23:33:31.765Z,1.32
2023-02-27T23:38:53.568Z,1.21
2023-02-27T23:44:38.582Z,1.24
2023-02-27T23:50:00.220Z,1.34
2023-02-27T23:55:22.744Z,1.27
